Time;durP1;ratioP1;P1;durP2;ratioP2;P2;SDS_P1;SDS_P2;PMS_P1;PMS_P2;Temp;Humidity;BMP_temperature;BMP_pressure;BME280_temperature;BME280_humidity;BME280_pressure;Samples;Min_cycle;Max_cycle;Signal;HPM_P1;HPM_P2
2022/01/18 00:00:30;;;;;;;;;;;1.20;99.90;;;;;;5068761;28;19929;-78
2022/01/18 00:02:59;;;;;;;;;;;1.20;99.90;;;;;;5045978;28;20007;-79
2022/01/18 00:05:27;;;;;;;;;;;1.10;99.90;;;;;;5039931;28;19935;-79
2022/01/18 00:07:57;;;;;;;;;;;1.10;99.90;;;;;;5053204;28;19929;-79
2022/01/18 00:10:29;;;;;;;;;;;1.10;99.90;;;;;;5045555;28;19931;-81
2022/01/18 00:15:55;;;;;;;;;;;1.10;99.90;;;;;;5064019;28;19931;-81
2022/01/18 00:18:24;;;;;;;;;;;1.10;99.90;;;;;;5067160;28;19936;-81
2022/01/18 00:21:10;;;;;;;;;;;1.00;99.90;;;;;;5065905;28;19928;-79
2022/01/18 00:23:54;;;;;;;;;;;1.00;99.90;;;;;;5052391;28;19924;-79
2022/01/18 00:26:27;;;;;;;;;;;1.10;99.90;;;;;;5068510;28;19940;-78
2022/01/18 00:29:03;;;;;;;;;;;1.10;99.90;;;;;;5050657;28;19946;-79
2022/01/18 00:34:21;;;;;;;;;;;1.30;99.90;;;;;;5079092;28;19954;-78
2022/01/18 00:39:19;;;;;;;;;;;0.90;99.90;;;;;;5063105;28;19935;-78
2022/01/18 00:41:48;;;;;;;;;;;0.90;99.90;;;;;;5055925;28;19936;-78
2022/01/18 00:44:18;;;;;;;;;;;0.90;99.90;;;;;;5049407;28;19935;-79
2022/01/18 00:46:45;;;;;;;;;;;0.80;99.90;;;;;;5049512;28;19925;-79
2022/01/18 00:49:15;;;;;;;;;;;0.80;99.90;;;;;;5033980;28;19925;-78
2022/01/18 00:51:49;;;;;;;;;;;0.80;99.90;;;;;;5032785;28;19925;-78
2022/01/18 00:54:23;;;;;;;;;;;0.80;99.90;;;;;;5030222;28;19925;-78
2022/01/18 00:56:53;;;;;;;;;;;0.80;99.90;;;;;;5029722;28;19940;-80
2022/01/18 00:59:22;;;;;;;;;;;0.80;99.90;;;;;;5052259;28;19950;-77
2022/01/18 01:01:54;;;;;;;;;;;0.80;99.90;;;;;;5017619;28;19931;-78
2022/01/18 01:04:26;;;;;;;;;;;0.80;99.90;;;;;;5085493;28;19925;-78
2022/01/18 01:06:55;;;;;;;;;;;0.80;99.90;;;;;;5057116;28;19925;-78
2022/01/18 01:09:23;;;;;;;;;;;0.70;99.90;;;;;;5033476;28;19960;-80
2022/01/18 01:11:52;;;;;;;;;;;0.80;99.90;;;;;;5076317;28;19931;-78
2022/01/18 01:14:23;;;;;;;;;;;0.80;99.90;;;;;;5066340;28;19925;-81
2022/01/18 01:16:59;;;;;;;;;;;0.70;99.90;;;;;;5049653;28;19929;-78
2022/01/18 01:35:50;;;;;;;;;;;0.70;99.90;;;;;;5050863;28;20400;-76
2022/01/18 01:46:34;;;;;;;;;;;0.70;99.90;;;;;;5019183;28;19929;-79
2022/01/18 01:49:12;;;;;;;;;;;0.50;99.90;;;;;;5065618;28;19925;-79
2022/01/18 01:51:42;;;;;;;;;;;0.70;99.90;;;;;;5050769;28;19929;-78
2022/01/18 01:54:12;;;;;;;;;;;0.70;99.90;;;;;;5050762;28;20464;-79
2022/01/18 01:56:40;;;;;;;;;;;0.70;99.90;;;;;;5044240;28;19925;-82
2022/01/18 01:59:15;;;;;;;;;;;0.70;99.90;;;;;;5032062;28;19932;-80
2022/01/18 02:01:45;;;;;;;;;;;0.60;99.90;;;;;;5047445;28;19936;-82
2022/01/18 02:04:15;;;;;;;;;;;0.60;99.90;;;;;;5066207;28;19931;-82
2022/01/18 02:06:43;;;;;;;;;;;0.60;99.90;;;;;;5050100;28;19929;-80
2022/01/18 02:09:12;;;;;;;;;;;0.60;99.90;;;;;;5045236;28;19935;-79
2022/01/18 02:11:41;;;;;;;;;;;0.60;99.90;;;;;;5061452;28;19932;-82
2022/01/18 02:14:16;;;;;;;;;;;0.60;99.90;;;;;;5069362;28;19935;-80
2022/01/18 02:22:19;;;;;;;;;;;0.50;99.90;;;;;;5068224;28;19929;-79
2022/01/18 02:24:49;;;;;;;;;;;0.50;99.90;;;;;;5050744;28;19944;-84
2022/01/18 02:27:18;;;;;;;;;;;0.40;99.90;;;;;;5033754;28;19936;-80
2022/01/18 02:29:46;;;;;;;;;;;0.50;99.90;;;;;;5067241;28;20370;-79
2022/01/18 02:32:14;;;;;;;;;;;0.50;99.90;;;;;;5050952;28;19935;-81
2022/01/18 02:34:41;;;;;;;;;;;0.30;99.90;;;;;;5068562;28;19928;-79
2022/01/18 02:37:11;;;;;;;;;;;0.40;99.90;;;;;;5032259;28;19932;-77
2022/01/18 02:39:39;;;;;;;;;;;0.40;99.90;;;;;;5057887;28;19928;-79
2022/01/18 02:42:10;;;;;;;;;;;0.40;99.90;;;;;;5038033;28;19931;-78
2022/01/18 02:44:39;;;;;;;;;;;0.40;99.90;;;;;;5049680;28;20067;-77
2022/01/18 02:47:07;;;;;;;;;;;0.40;99.90;;;;;;5068924;28;19928;-77
2022/01/18 02:49:35;;;;;;;;;;;0.30;99.90;;;;;;5051908;28;19939;-79
2022/01/18 02:52:04;;;;;;;;;;;0.30;99.90;;;;;;5051754;28;19931;-77
2022/01/18 02:54:36;;;;;;;;;;;0.30;99.90;;;;;;5050368;28;19935;-79
2022/01/18 02:57:10;;;;;;;;;;;0.30;99.90;;;;;;5033633;28;20000;-79
2022/01/18 03:00:04;;;;;;;;;;;0.30;99.90;;;;;;5069931;28;19935;-79
2022/01/18 03:05:19;;;;;;;;;;;0.30;99.90;;;;;;5056031;28;19931;-78
2022/01/18 03:07:47;;;;;;;;;;;0.30;99.90;;;;;;5055121;28;19939;-79
2022/01/18 03:10:16;;;;;;;;;;;0.30;99.90;;;;;;5071158;28;19909;-81
2022/01/18 03:12:44;;;;;;;;;;;0.20;99.90;;;;;;5050878;28;19931;-80
2022/01/18 03:15:13;;;;;;;;;;;1.10;99.90;;;;;;5051387;28;20374;-81
2022/01/18 03:17:41;;;;;;;;;;;0.40;99.90;;;;;;5035912;28;19909;-78
2022/01/18 03:20:12;;;;;;;;;;;-0.30;99.90;;;;;;5053496;28;19929;-79
2022/01/18 03:22:40;;;;;;;;;;;0.30;99.90;;;;;;5066608;28;19929;-78
2022/01/18 03:30:24;;;;;;;;;;;0.20;99.90;;;;;;5063920;28;19933;-82
2022/01/18 03:32:51;;;;;;;;;;;0.20;99.90;;;;;;5075743;28;19915;-78
2022/01/18 03:35:21;;;;;;;;;;;0.20;99.90;;;;;;5089050;28;19931;-78
2022/01/18 03:37:49;;;;;;;;;;;0.20;99.90;;;;;;4724100;28;9999593;-79
2022/01/18 03:40:17;;;;;;;;;;;0.20;99.90;;;;;;5020877;28;19915;-79
2022/01/18 03:42:46;;;;;;;;;;;0.10;99.90;;;;;;5071448;28;19935;-78
2022/01/18 03:45:16;;;;;;;;;;;0.10;99.90;;;;;;5053741;28;19925;-79
2022/01/18 03:47:45;;;;;;;;;;;0.10;99.90;;;;;;5049377;28;19931;-81
2022/01/18 03:50:15;;;;;;;;;;;0.10;99.90;;;;;;5020569;28;19913;-83
2022/01/18 03:52:44;;;;;;;;;;;0.10;99.90;;;;;;5052268;28;19925;-81
2022/01/18 03:55:15;;;;;;;;;;;0.10;99.90;;;;;;5067749;28;19939;-83
2022/01/18 03:57:44;;;;;;;;;;;0.10;99.90;;;;;;5064253;28;20336;-78
2022/01/18 04:00:16;;;;;;;;;;;0.10;99.90;;;;;;5031806;28;19936;-78
2022/01/18 04:02:45;;;;;;;;;;;0.10;99.90;;;;;;5075258;28;20530;-79
2022/01/18 04:05:16;;;;;;;;;;;0.10;99.90;;;;;;5072673;28;19925;-79
2022/01/18 04:07:46;;;;;;;;;;;0.10;99.90;;;;;;5046568;28;19924;-78
2022/01/18 04:10:15;;;;;;;;;;;0.10;99.90;;;;;;5072869;28;19939;-79
2022/01/18 04:12:44;;;;;;;;;;;0.10;99.90;;;;;;5034013;28;19925;-78
2022/01/18 04:15:13;;;;;;;;;;;0.10;99.90;;;;;;5068259;28;19925;-79
2022/01/18 04:28:42;;;;;;;;;;;0.20;99.90;;;;;;5033486;28;19929;-79
2022/01/18 04:31:10;;;;;;;;;;;0.00;99.90;;;;;;5069686;28;19925;-78
2022/01/18 04:33:39;;;;;;;;;;;0.00;99.90;;;;;;5046641;28;19924;-80
2022/01/18 04:36:08;;;;;;;;;;;0.00;99.90;;;;;;5049400;28;19935;-80
2022/01/18 04:38:37;;;;;;;;;;;0.10;99.90;;;;;;5045441;28;19928;-82
2022/01/18 04:41:09;;;;;;;;;;;0.00;99.90;;;;;;5073983;28;19935;-80
2022/01/18 04:48:56;;;;;;;;;;;-0.10;99.90;;;;;;5071867;28;19923;-79
2022/01/18 04:51:24;;;;;;;;;;;-0.10;99.90;;;;;;5051397;28;19933;-79
2022/01/18 04:53:57;;;;;;;;;;;-0.10;99.90;;;;;;5048381;28;19925;-79
2022/01/18 04:59:07;;;;;;;;;;;-0.10;99.90;;;;;;5069806;28;19932;-80
2022/01/18 05:01:38;;;;;;;;;;;-0.10;99.90;;;;;;5036331;28;19929;-79
2022/01/18 05:04:07;;;;;;;;;;;-0.50;99.90;;;;;;5050478;28;19928;-79
2022/01/18 05:06:35;;;;;;;;;;;-0.10;99.90;;;;;;5056632;28;20392;-79
2022/01/18 05:09:09;;;;;;;;;;;-0.10;99.90;;;;;;5073539;28;19924;-78
2022/01/18 05:12:35;;;;;;;;;;;-0.10;99.90;;;;;;5077449;28;19935;-78
2022/01/18 05:14:33;;;;;;;;;;;-0.10;99.90;;;;;;5048698;28;19929;-79
2022/01/18 05:17:21;;;;;;;;;;;-0.10;99.90;;;;;;5069811;28;19939;-78
2022/01/18 05:25:09;;;;;;;;;;;-0.20;99.90;;;;;;5048408;28;19925;-78
2022/01/18 05:27:37;;;;;;;;;;;-0.60;99.90;;;;;;5047754;28;19929;-78
2022/01/18 05:30:08;;;;;;;;;;;0.00;99.90;;;;;;5049141;28;19994;-78
2022/01/18 05:32:36;;;;;;;;;;;-0.20;99.90;;;;;;5060899;28;19929;-78
2022/01/18 05:35:05;;;;;;;;;;;-0.20;99.90;;;;;;5034482;28;19931;-79
2022/01/18 05:37:33;;;;;;;;;;;-0.20;99.90;;;;;;5069099;28;19940;-78
2022/01/18 05:40:03;;;;;;;;;;;-0.20;99.90;;;;;;5069965;28;19913;-78
2022/01/18 05:42:31;;;;;;;;;;;-0.20;99.90;;;;;;5051971;28;19928;-80
2022/01/18 05:44:59;;;;;;;;;;;-0.30;99.90;;;;;;5068319;28;19935;-79
2022/01/18 05:47:27;;;;;;;;;;;-0.30;99.90;;;;;;5048357;28;19939;-82
2022/01/18 05:49:55;;;;;;;;;;;-0.30;99.90;;;;;;5063772;28;19929;-78
2022/01/18 05:52:23;;;;;;;;;;;-0.30;99.90;;;;;;5063481;28;19935;-78
2022/01/18 05:54:51;;;;;;;;;;;-0.30;99.90;;;;;;5050429;28;19936;-78
2022/01/18 05:57:20;;;;;;;;;;;-0.30;99.90;;;;;;5034521;28;19931;-77
2022/01/18 05:59:50;;;;;;;;;;;-0.30;99.90;;;;;;5050268;28;19933;-78
2022/01/18 06:07:49;;;;;;;;;;;-0.30;99.90;;;;;;5045174;28;19925;-78
2022/01/18 06:10:19;;;;;;;;;;;-2.20;99.90;;;;;;5051525;28;19925;-80
2022/01/18 06:12:49;;;;;;;;;;;-0.30;99.90;;;;;;5046364;28;20275;-80
2022/01/18 06:15:16;;;;;;;;;;;-0.40;99.90;;;;;;5062759;28;20098;-82
2022/01/18 06:17:47;;;;;;;;;;;-0.40;99.90;;;;;;5022680;28;19925;-81
2022/01/18 06:20:16;;;;;;;;;;;-1.40;99.90;;;;;;5028178;28;19913;-78
2022/01/18 06:22:44;;;;;;;;;;;-0.40;99.90;;;;;;5059472;28;19925;-79
2022/01/18 06:25:12;;;;;;;;;;;-0.40;99.90;;;;;;5061799;28;19935;-79
2022/01/18 06:27:40;;;;;;;;;;;-0.40;99.90;;;;;;5021340;28;19929;-80
2022/01/18 06:30:10;;;;;;;;;;;-0.40;99.90;;;;;;5009745;28;19940;-79
2022/01/18 06:32:38;;;;;;;;;;;-0.40;99.90;;;;;;5014073;28;19944;-80
2022/01/18 06:35:07;;;;;;;;;;;-0.40;99.90;;;;;;5083747;28;19932;-80
2022/01/18 06:37:35;;;;;;;;;;;-0.40;99.90;;;;;;5068026;22;19933;-79
2022/01/18 06:40:04;;;;;;;;;;;-0.40;99.90;;;;;;5043327;28;19930;-77
2022/01/18 06:42:32;;;;;;;;;;;-0.40;99.90;;;;;;5040980;28;19930;-78
2022/01/18 06:45:00;;;;;;;;;;;-0.40;99.90;;;;;;5013628;28;19927;-78
2022/01/18 06:47:28;;;;;;;;;;;-0.40;99.90;;;;;;4961897;29;19926;-78
2022/01/18 06:49:56;;;;;;;;;;;-0.40;99.90;;;;;;5044340;28;19930;-78
2022/01/18 06:52:24;;;;;;;;;;;-0.40;99.90;;;;;;5012795;28;19927;-80
2022/01/18 06:54:53;;;;;;;;;;;-0.50;99.90;;;;;;5030845;28;19927;-83
2022/01/18 06:57:22;;;;;;;;;;;-0.50;99.90;;;;;;5044234;28;19935;-78
2022/01/18 06:59:50;;;;;;;;;;;-0.50;99.90;;;;;;4963393;28;19927;-79
2022/01/18 07:02:18;;;;;;;;;;;-0.50;99.90;;;;;;5062623;28;19931;-79
2022/01/18 07:04:46;;;;;;;;;;;-0.50;99.90;;;;;;4973378;28;19931;-79
2022/01/18 07:07:14;;;;;;;;;;;-0.50;99.90;;;;;;5015764;28;19930;-80
2022/01/18 07:09:43;;;;;;;;;;;-0.50;99.90;;;;;;5046752;28;20565;-79
2022/01/18 07:12:12;;;;;;;;;;;-0.50;99.90;;;;;;4991433;28;19930;-79
2022/01/18 07:14:40;;;;;;;;;;;-0.50;99.90;;;;;;5032377;28;19927;-80
2022/01/18 07:17:08;;;;;;;;;;;-0.50;99.90;;;;;;5052212;28;19935;-78
2022/01/18 07:19:38;;;;;;;;;;;-0.50;99.90;;;;;;4984166;28;19925;-79
2022/01/18 07:22:06;;;;;;;;;;;-0.50;99.90;;;;;;4944105;28;19914;-80
2022/01/18 07:24:43;;;;;;;;;;;-0.50;99.90;;;;;;5048548;28;19930;-80
2022/01/18 07:27:12;;;;;;;;;;;-0.50;99.90;;;;;;5028742;28;19937;-82
2022/01/18 07:29:42;;;;;;;;;;;-1.10;99.90;;;;;;5021536;28;19937;-80
2022/01/18 07:32:10;;;;;;;;;;;-0.60;99.90;;;;;;4973040;28;19930;-81
2022/01/18 07:34:49;;;;;;;;;;;-0.50;99.90;;;;;;5048425;28;19935;-79
2022/01/18 07:37:18;;;;;;;;;;;-0.60;99.90;;;;;;5022930;28;19949;-81
2022/01/18 07:39:51;;;;;;;;;;;-0.50;99.90;;;;;;4956664;28;20012;-78
2022/01/18 07:42:20;;;;;;;;;;;-0.60;99.90;;;;;;4961037;28;19934;-79
2022/01/18 07:44:49;;;;;;;;;;;-0.60;99.90;;;;;;4977161;28;19934;-78
2022/01/18 07:47:17;;;;;;;;;;;-0.60;99.90;;;;;;4965606;28;20225;-81
2022/01/18 07:49:45;;;;;;;;;;;-0.50;99.90;;;;;;4960094;28;19934;-79
2022/01/18 07:52:17;;;;;;;;;;;-0.60;99.90;;;;;;4964327;28;19934;-80
2022/01/18 07:54:44;;;;;;;;;;;-0.50;99.90;;;;;;4980312;28;19934;-80
2022/01/18 07:57:14;;;;;;;;;;;-0.50;99.90;;;;;;4948364;28;20109;-81
2022/01/18 07:59:43;;;;;;;;;;;-0.50;99.90;;;;;;4992112;28;19945;-80
2022/01/18 08:02:11;;;;;;;;;;;-0.50;99.90;;;;;;4965660;28;20466;-80
2022/01/18 08:04:40;;;;;;;;;;;-0.40;99.90;;;;;;4995242;28;19941;-81
2022/01/18 08:07:08;;;;;;;;;;;-0.30;99.90;;;;;;4982112;28;19926;-82
2022/01/18 08:09:36;;;;;;;;;;;-0.50;99.90;;;;;;4994219;28;19926;-81
2022/01/18 08:12:05;;;;;;;;;;;-0.30;99.90;;;;;;4966905;28;19930;-80
2022/01/18 08:14:35;;;;;;;;;;;-0.40;99.90;;;;;;4966077;28;19926;-82
2022/01/18 08:17:07;;;;;;;;;;;-0.40;99.90;;;;;;4983363;28;19926;-83
2022/01/18 08:19:35;;;;;;;;;;;-0.40;99.90;;;;;;4967430;28;19926;-82
2022/01/18 08:22:08;;;;;;;;;;;-0.40;99.90;;;;;;5051075;28;19932;-84
2022/01/18 08:24:37;;;;;;;;;;;-0.10;99.90;;;;;;4950162;28;20275;-80
2022/01/18 08:27:05;;;;;;;;;;;-0.40;99.90;;;;;;5034137;28;19930;-80
2022/01/18 08:29:36;;;;;;;;;;;-0.30;99.90;;;;;;4634861;28;10000553;-81
2022/01/18 08:32:17;;;;;;;;;;;-0.30;99.90;;;;;;4982793;28;19937;-80
2022/01/18 08:34:44;;;;;;;;;;;-0.30;99.90;;;;;;4981672;28;19933;-79
2022/01/18 08:37:13;;;;;;;;;;;-0.30;99.90;;;;;;4959830;28;20426;-82
2022/01/18 08:39:41;;;;;;;;;;;-0.30;99.90;;;;;;4965464;28;19930;-81
2022/01/18 08:42:10;;;;;;;;;;;-0.20;99.90;;;;;;4965080;28;19934;-80
2022/01/18 08:44:42;;;;;;;;;;;-0.20;99.90;;;;;;4964856;28;19936;-80
2022/01/18 08:47:12;;;;;;;;;;;-0.10;99.90;;;;;;4943157;28;20485;-80
2022/01/18 08:49:40;;;;;;;;;;;-0.10;99.90;;;;;;4965202;28;19942;-85
2022/01/18 08:52:08;;;;;;;;;;;0.00;99.90;;;;;;4965179;28;19961;-79
2022/01/18 08:54:36;;;;;;;;;;;0.00;99.90;;;;;;4965632;28;19949;-79
2022/01/18 08:57:04;;;;;;;;;;;0.10;99.90;;;;;;4960964;28;19927;-80
2022/01/18 08:59:35;;;;;;;;;;;0.00;99.90;;;;;;4965470;28;19927;-79
2022/01/18 09:02:03;;;;;;;;;;;0.10;99.90;;;;;;4965955;28;19937;-80
2022/01/18 09:04:33;;;;;;;;;;;0.20;99.90;;;;;;4999593;28;19937;-80
2022/01/18 09:07:06;;;;;;;;;;;0.30;99.90;;;;;;4969366;28;19932;-80
2022/01/18 09:09:41;;;;;;;;;;;0.30;99.90;;;;;;4957681;28;19937;-84
2022/01/18 09:12:11;;;;;;;;;;;0.20;99.90;;;;;;4979533;28;19926;-81
2022/01/18 09:14:39;;;;;;;;;;;0.30;99.90;;;;;;4982292;28;19930;-79
2022/01/18 09:17:07;;;;;;;;;;;0.70;99.90;;;;;;4960061;28;20602;-80
2022/01/18 09:19:35;;;;;;;;;;;0.50;99.90;;;;;;4961681;28;19941;-80
2022/01/18 09:22:03;;;;;;;;;;;0.60;99.90;;;;;;4955770;28;19926;-82
2022/01/18 09:24:32;;;;;;;;;;;0.60;99.90;;;;;;4945904;29;19926;-80
2022/01/18 09:27:00;;;;;;;;;;;0.60;99.90;;;;;;4954886;28;19953;-80
2022/01/18 09:29:29;;;;;;;;;;;0.60;99.90;;;;;;5032506;28;19934;-80
2022/01/18 09:31:57;;;;;;;;;;;0.70;99.90;;;;;;4965654;28;19937;-81
2022/01/18 09:34:26;;;;;;;;;;;0.80;99.90;;;;;;4972508;28;19930;-80
2022/01/18 09:36:53;;;;;;;;;;;0.80;99.90;;;;;;4963377;28;19944;-84
2022/01/18 09:39:22;;;;;;;;;;;0.90;99.90;;;;;;4965047;28;19941;-80
2022/01/18 09:41:51;;;;;;;;;;;1.00;99.90;;;;;;4957810;28;19926;-81
2022/01/18 09:44:20;;;;;;;;;;;1.00;99.90;;;;;;4969682;28;19934;-80
2022/01/18 09:46:49;;;;;;;;;;;1.10;99.90;;;;;;4946904;28;19926;-80
2022/01/18 09:49:17;;;;;;;;;;;1.30;99.90;;;;;;4974648;28;19952;-82
2022/01/18 09:51:46;;;;;;;;;;;1.30;99.90;;;;;;4978774;28;21291;-81
2022/01/18 09:54:14;;;;;;;;;;;1.40;99.90;;;;;;4964709;28;19930;-79
2022/01/18 09:56:42;;;;;;;;;;;1.60;99.90;;;;;;4960359;28;19934;-80
2022/01/18 09:59:10;;;;;;;;;;;1.70;99.90;;;;;;4976383;28;19938;-79
2022/01/18 10:01:38;;;;;;;;;;;1.80;99.90;;;;;;4960966;28;19935;-80
2022/01/18 10:04:17;;;;;;;;;;;1.90;99.90;;;;;;4927770;28;19937;-80
2022/01/18 10:06:47;;;;;;;;;;;2.20;99.90;;;;;;4960242;28;19934;-79
2022/01/18 10:09:16;;;;;;;;;;;2.30;99.90;;;;;;4945905;28;19933;-83
2022/01/18 10:12:01;;;;;;;;;;;2.30;99.90;;;;;;4961367;28;19933;-79
2022/01/18 10:14:29;;;;;;;;;;;2.40;99.90;;;;;;4960096;28;19926;-82
2022/01/18 10:16:57;;;;;;;;;;;2.60;99.90;;;;;;4976351;28;19941;-80
2022/01/18 10:19:33;;;;;;;;;;;2.80;99.90;;;;;;4976269;28;19934;-81
2022/01/18 10:22:11;;;;;;;;;;;3.70;99.90;;;;;;4946951;28;19930;-80
2022/01/18 10:24:41;;;;;;;;;;;3.10;99.90;;;;;;4978482;28;19937;-79
2022/01/18 10:27:10;;;;;;;;;;;3.30;99.90;;;;;;4927235;28;19930;-80
2022/01/18 10:29:50;;;;;;;;;;;3.40;99.90;;;;;;4977954;28;19933;-81
2022/01/18 10:32:30;;;;;;;;;;;3.50;99.90;;;;;;5027241;28;20394;-80
2022/01/18 10:37:29;;;;;;;;;;;4.50;99.90;;;;;;4957080;28;19944;-80
2022/01/18 10:40:03;;;;;;;;;;;4.00;99.90;;;;;;4975022;28;19941;-80
2022/01/18 10:42:54;;;;;;;;;;;4.10;99.90;;;;;;4955268;28;20004;-80
2022/01/18 10:45:31;;;;;;;;;;;4.30;99.90;;;;;;4958454;28;19937;-80
2022/01/18 10:48:15;;;;;;;;;;;4.40;99.90;;;;;;4975949;28;19941;-81
2022/01/18 10:50:44;;;;;;;;;;;4.50;99.90;;;;;;4975660;28;19926;-79
2022/01/18 10:53:18;;;;;;;;;;;3.60;99.90;;;;;;4975737;28;19937;-81
2022/01/18 10:55:46;;;;;;;;;;;4.70;99.90;;;;;;4927235;28;19930;-82
2022/01/18 10:58:22;;;;;;;;;;;4.80;99.90;;;;;;4959623;28;19948;-81
2022/01/18 11:00:50;;;;;;;;;;;4.80;99.90;;;;;;4958079;28;19934;-81
2022/01/18 11:03:17;;;;;;;;;;;4.90;99.90;;;;;;4960684;28;20392;-80
2022/01/18 11:05:46;;;;;;;;;;;5.00;99.90;;;;;;4974751;28;19936;-81
2022/01/18 11:08:18;;;;;;;;;;;5.10;99.90;;;;;;4976326;28;19934;-80
2022/01/18 11:10:47;;;;;;;;;;;5.10;99.90;;;;;;4965390;28;19930;-80
2022/01/18 11:13:35;;;;;;;;;;;5.20;99.90;;;;;;4960359;28;19959;-80
2022/01/18 11:16:12;;;;;;;;;;;5.30;99.90;;;;;;4946137;28;19926;-80
2022/01/18 11:18:45;;;;;;;;;;;5.30;99.90;;;;;;4976002;28;19941;-80
2022/01/18 11:21:18;;;;;;;;;;;4.00;99.90;;;;;;4963336;28;19938;-80
2022/01/18 11:23:47;;;;;;;;;;;5.30;99.90;;;;;;4965157;28;19926;-81
2022/01/18 11:26:17;;;;;;;;;;;5.40;99.90;;;;;;4980128;28;19932;-81
2022/01/18 11:28:47;;;;;;;;;;;5.50;99.90;;;;;;4962365;28;19926;-81
2022/01/18 11:31:15;;;;;;;;;;;3.90;99.90;;;;;;4965468;28;19930;-82
2022/01/18 11:33:49;;;;;;;;;;;5.60;99.90;;;;;;4980782;28;19930;-81
2022/01/18 11:36:20;;;;;;;;;;;4.00;99.90;;;;;;4969554;28;19930;-81
2022/01/18 11:39:00;;;;;;;;;;;5.60;99.90;;;;;;4981132;28;19926;-81
2022/01/18 11:41:31;;;;;;;;;;;5.60;99.90;;;;;;4965902;28;19933;-81
2022/01/18 11:44:11;;;;;;;;;;;5.70;99.90;;;;;;4978741;28;20013;-81
2022/01/18 11:46:50;;;;;;;;;;;5.90;99.90;;;;;;5030122;28;19930;-81
2022/01/18 11:49:30;;;;;;;;;;;5.80;99.90;;;;;;4947646;28;19931;-80
2022/01/18 11:52:00;;;;;;;;;;;6.00;99.90;;;;;;4962384;29;19931;-81
2022/01/18 11:57:09;;;;;;;;;;;6.00;99.90;;;;;;4966471;28;19932;-81
2022/01/18 11:59:39;;;;;;;;;;;6.10;99.90;;;;;;4965645;28;19926;-81
2022/01/18 12:02:08;;;;;;;;;;;6.10;99.90;;;;;;4981815;28;19926;-80
2022/01/18 12:07:32;;;;;;;;;;;6.30;99.90;;;;;;4964161;28;19938;-81
2022/01/18 12:10:02;;;;;;;;;;;6.30;99.90;;;;;;4967241;28;19935;-80
2022/01/18 12:12:40;;;;;;;;;;;6.30;99.90;;;;;;4941277;28;19937;-81
2022/01/18 12:15:31;;;;;;;;;;;6.30;99.90;;;;;;4968524;28;21289;-80
2022/01/18 12:18:01;;;;;;;;;;;6.60;99.90;;;;;;4963430;28;19927;-81
2022/01/18 12:20:46;;;;;;;;;;;6.30;99.90;;;;;;4965217;28;19930;-80
2022/01/18 12:23:17;;;;;;;;;;;6.40;99.90;;;;;;4948361;28;20264;-80
2022/01/18 12:26:01;;;;;;;;;;;5.50;99.90;;;;;;4982257;28;20211;-82
2022/01/18 12:28:35;;;;;;;;;;;6.50;99.90;;;;;;4980704;28;19937;-80
2022/01/18 12:31:23;;;;;;;;;;;6.50;99.90;;;;;;4968063;28;19926;-80
2022/01/18 12:33:52;;;;;;;;;;;6.60;99.90;;;;;;4950036;28;19926;-81
2022/01/18 12:36:32;;;;;;;;;;;6.70;99.90;;;;;;4948959;28;19972;-81
2022/01/18 12:39:00;;;;;;;;;;;6.80;99.90;;;;;;4980972;28;19926;-81
2022/01/18 12:41:45;;;;;;;;;;;6.40;99.90;;;;;;4975301;28;19929;-81
2022/01/18 12:44:22;;;;;;;;;;;7.20;99.90;;;;;;4969287;28;19926;-80
2022/01/18 12:46:59;;;;;;;;;;;6.10;99.90;;;;;;4973652;28;19941;-80
2022/01/18 12:49:30;;;;;;;;;;;7.10;99.90;;;;;;4974517;28;19930;-81
2022/01/18 12:52:11;;;;;;;;;;;7.10;99.90;;;;;;4960286;28;19930;-80
2022/01/18 12:54:42;;;;;;;;;;;8.40;99.90;;;;;;4960500;28;19934;-81
2022/01/18 12:57:15;;;;;;;;;;;7.20;99.90;;;;;;4976836;28;19931;-80
2022/01/18 13:00:01;;;;;;;;;;;7.20;99.90;;;;;;4978775;28;19936;-80
2022/01/18 13:02:30;;;;;;;;;;;7.30;99.90;;;;;;4961932;28;19937;-80
2022/01/18 13:05:00;;;;;;;;;;;7.30;99.90;;;;;;4964568;28;19926;-80
2022/01/18 13:07:29;;;;;;;;;;;7.50;99.90;;;;;;5028806;28;19926;-80
2022/01/18 13:09:59;;;;;;;;;;;7.40;99.90;;;;;;4962173;28;20324;-82
2022/01/18 13:12:31;;;;;;;;;;;7.40;99.90;;;;;;4972287;28;19926;-79
2022/01/18 13:15:02;;;;;;;;;;;7.50;99.90;;;;;;4960168;28;19932;-79
2022/01/18 13:23:49;;;;;;;;;;;7.80;99.90;;;;;;4976096;28;19926;-79
2022/01/18 13:26:33;;;;;;;;;;;7.90;99.90;;;;;;4960235;28;20329;-79
2022/01/18 13:29:10;;;;;;;;;;;7.90;99.90;;;;;;4977690;28;19945;-78
2022/01/18 13:31:40;;;;;;;;;;;7.90;99.90;;;;;;4978793;28;19930;-79
2022/01/18 13:34:12;;;;;;;;;;;8.00;99.90;;;;;;4980538;28;19927;-79
2022/01/18 13:36:48;;;;;;;;;;;8.10;99.90;;;;;;4947388;28;19934;-80
2022/01/18 13:39:20;;;;;;;;;;;8.10;99.90;;;;;;4976636;28;19937;-78
2022/01/18 13:41:48;;;;;;;;;;;8.10;99.90;;;;;;4976610;28;19926;-78
2022/01/18 13:44:16;;;;;;;;;;;8.20;99.90;;;;;;4976719;28;19926;-79
2022/01/18 13:46:44;;;;;;;;;;;8.30;99.90;;;;;;4977566;28;19926;-79
2022/01/18 13:49:13;;;;;;;;;;;8.40;99.90;;;;;;4631994;28;10000147;-79
2022/01/18 13:51:58;;;;;;;;;;;8.50;99.90;;;;;;4977653;28;20016;-79
2022/01/18 13:54:28;;;;;;;;;;;8.60;99.90;;;;;;4960092;28;19936;-79
2022/01/18 13:56:56;;;;;;;;;;;8.70;99.90;;;;;;4975702;28;19934;-77
2022/01/18 13:59:25;;;;;;;;;;;8.80;99.90;;;;;;4977046;28;20670;-79
2022/01/18 14:01:53;;;;;;;;;;;8.90;99.90;;;;;;4977434;28;19926;-79
2022/01/18 14:04:24;;;;;;;;;;;9.10;99.90;;;;;;4976262;28;19934;-79
2022/01/18 14:06:55;;;;;;;;;;;9.10;99.90;;;;;;4961433;28;19930;-79
2022/01/18 14:09:23;;;;;;;;;;;9.30;99.90;;;;;;4959361;28;19930;-79
2022/01/18 14:11:54;;;;;;;;;;;9.30;99.90;;;;;;4944827;28;20544;-80
2022/01/18 14:14:25;;;;;;;;;;;9.20;99.90;;;;;;4978466;28;19940;-79
2022/01/18 14:16:58;;;;;;;;;;;9.10;99.90;;;;;;4960570;28;19926;-79
2022/01/18 14:19:31;;;;;;;;;;;9.00;99.90;;;;;;4960894;28;19930;-78
2022/01/18 14:22:01;;;;;;;;;;;8.90;99.90;;;;;;4978104;28;19926;-80
2022/01/18 14:24:32;;;;;;;;;;;8.80;99.90;;;;;;4977017;28;19930;-79
2022/01/18 14:27:01;;;;;;;;;;;8.60;99.90;;;;;;4958327;28;19949;-79
2022/01/18 14:29:51;;;;;;;;;;;8.50;99.90;;;;;;4958901;28;19946;-80
2022/01/18 14:32:30;;;;;;;;;;;8.40;99.90;;;;;;4958075;28;19926;-80
2022/01/18 14:35:00;;;;;;;;;;;8.30;99.90;;;;;;4943639;28;19934;-80
2022/01/18 14:37:36;;;;;;;;;;;8.20;99.90;;;;;;4942089;28;19930;-81
2022/01/18 14:40:16;;;;;;;;;;;8.20;99.90;;;;;;4941572;28;19938;-80
2022/01/18 14:42:47;;;;;;;;;;;8.10;99.90;;;;;;4975817;28;19926;-80
2022/01/18 14:47:45;;;;;;;;;;;8.00;99.90;;;;;;4977909;28;19930;-81
2022/01/18 14:50:16;;;;;;;;;;;8.20;99.90;;;;;;4977159;28;19930;-82
2022/01/18 14:52:49;;;;;;;;;;;8.10;99.90;;;;;;4978882;28;19930;-80
2022/01/18 14:55:18;;;;;;;;;;;8.10;99.90;;;;;;4963795;28;19937;-81
2022/01/18 14:57:47;;;;;;;;;;;8.10;99.90;;;;;;4949772;28;19930;-80
2022/01/18 15:00:17;;;;;;;;;;;8.10;99.90;;;;;;4950532;28;19926;-80
2022/01/18 15:02:46;;;;;;;;;;;8.10;99.90;;;;;;4984342;28;19932;-84
2022/01/18 15:05:14;;;;;;;;;;;8.10;99.90;;;;;;4965647;28;19927;-80
2022/01/18 15:07:42;;;;;;;;;;;8.70;99.90;;;;;;4967858;28;20120;-81
2022/01/18 15:10:11;;;;;;;;;;;7.90;99.90;;;;;;4984305;28;19927;-81
2022/01/18 15:12:41;;;;;;;;;;;7.90;99.90;;;;;;4983204;28;19926;-78
2022/01/18 15:15:09;;;;;;;;;;;8.00;99.90;;;;;;4984765;28;19933;-80
2022/01/18 15:17:38;;;;;;;;;;;8.10;99.90;;;;;;4963840;28;19945;-78
2022/01/18 15:20:31;;;;;;;;;;;8.10;99.90;;;;;;4958720;28;19937;-78
2022/01/18 15:23:05;;;;;;;;;;;8.20;99.90;;;;;;4962297;28;19926;-77
2022/01/18 15:25:52;;;;;;;;;;;8.20;99.90;;;;;;4977825;28;19926;-78
2022/01/18 15:28:20;;;;;;;;;;;8.20;99.90;;;;;;4979224;28;19942;-79
2022/01/18 15:30:48;;;;;;;;;;;8.20;99.90;;;;;;4961961;28;19927;-79
2022/01/18 15:33:16;;;;;;;;;;;8.10;99.90;;;;;;4965721;28;19941;-80
2022/01/18 15:35:44;;;;;;;;;;;8.10;99.90;;;;;;4961708;28;19964;-78
2022/01/18 15:38:12;;;;;;;;;;;8.10;99.90;;;;;;4959962;28;19957;-79
2022/01/18 15:40:40;;;;;;;;;;;8.00;99.90;;;;;;4978203;28;20020;-80
2022/01/18 15:43:08;;;;;;;;;;;8.00;99.90;;;;;;4944417;28;19926;-83
2022/01/18 15:45:36;;;;;;;;;;;7.90;99.90;;;;;;4959162;28;20331;-79
2022/01/18 15:48:04;;;;;;;;;;;7.70;99.90;;;;;;4962579;28;19930;-81
2022/01/18 15:50:33;;;;;;;;;;;7.60;99.90;;;;;;4982340;28;19934;-78
2022/01/18 15:53:00;;;;;;;;;;;7.50;99.90;;;;;;4976925;28;19934;-80
2022/01/18 15:55:28;;;;;;;;;;;7.40;99.90;;;;;;4944747;28;19934;-82
2022/01/18 15:57:56;;;;;;;;;;;7.30;99.90;;;;;;4976915;28;19927;-80
2022/01/18 16:00:25;;;;;;;;;;;7.20;99.90;;;;;;4980178;28;19931;-79
2022/01/18 16:02:53;;;;;;;;;;;7.00;99.90;;;;;;4979601;28;20652;-80
2022/01/18 16:05:21;;;;;;;;;;;6.90;99.90;;;;;;4961950;28;19926;-79
2022/01/18 16:07:55;;;;;;;;;;;6.80;99.90;;;;;;4962724;28;19927;-84
2022/01/18 16:10:25;;;;;;;;;;;6.70;99.90;;;;;;4976839;28;19934;-80
2022/01/18 16:12:56;;;;;;;;;;;6.50;99.90;;;;;;4963254;28;19937;-79
2022/01/18 16:15:24;;;;;;;;;;;6.40;99.90;;;;;;4961206;28;20805;-80
2022/01/18 16:17:54;;;;;;;;;;;6.30;99.90;;;;;;4981910;28;19940;-80
2022/01/18 16:20:22;;;;;;;;;;;6.20;99.90;;;;;;4977518;28;19961;-79